Weather observations for the past three days for
Eagle Lake
Imperial (Metric)
Date Time (cdt) Wind (mph) Vis. (mi.) Weather Sky Cond. Temperature (ºF) Relative Humidity Wind Chill (°F) Heat Index (°F) Pressure Precipitation (in)
Air Dwpt 6 hour altimeter (in) sea level (mb) 1 hr 3 hr 6 hr
Max. Min.
05 12:50 S 7 10.00 Mostly Cloudy SCT049 BKN060 BKN080 92.1 74.3 94.3 73.9 56% 102 29.94 0.0
05 12:35 S 7 10.00 Mostly Cloudy SCT041 SCT047 BKN060 93.2 74.8 55% 104 29.94 0.0
05 12:15 Calm 10.00 Overcast BKN040 BKN046 OVC050 91.2 72.9 55% 100 29.95 0.0
05 11:55 S 6 10.00 Mostly Cloudy BKN035 91.6 73.6 56% 101 29.95 0.0
05 11:40 N 3 10.00 Partly Cloudy SCT031 89.2 76.5 66% 101 29.96 0.0
05 11:10 Calm 10.00 Partly Cloudy SCT045 SCT050 87.6 76.1 69% 99 29.96 0.0
05 10:55 Calm 10.00 Partly Cloudy SCT037 SCT045 SCT050 87.6 75.9 68% 98 29.96 0.0
05 10:35 Calm 10.00 Mostly Cloudy SCT018 SCT027 BKN039 86.2 76.6 73% 97 29.96 0.0
05 10:15 SE 3 10.00 Mostly Cloudy BKN015 BKN020 BKN029 86.2 78.4 78% 99 29.96 0.0
05 09:55 Calm 10.00 Partly Cloudy SCT013 84.7 79.2 83% 98 29.96 0.0
05 09:15 Calm 10.00 Fair CLR 82.2 79.3 91% 92 29.96 0.0
05 08:55 Calm 10.00 Fair CLR 80.2 79 96% 87 29.96 0.0
05 08:35 Calm 10.00 Fair CLR 78.4 78.1 99% 82 29.95 0.0
05 08:15 Calm 7.00 Fair CLR 77.2 77 99% 78 29.95 0.0
05 07:55 Calm 4.00 Fog/Mist SCT017 75.6 75.4 99% 74 29.94 0.0
05 07:35 Calm 1.25 Fog/Mist BKN002 BKN006 74.5 74.3 99% 29.94 0.0
05 07:15 Calm 0.25 Fog OVC002 74.3 73.9 99% 29.93 0.0
05 06:55 NE 3 0.50 Fog OVC002 73.8 73.6 77.5 73.4 99% 29.93 0.0
05 06:35 Calm 1.25 Fog/Mist OVC002 73.6 73.4 99% 29.92 0.0
05 06:15 Calm 4.00 Fog/Mist CLR 73.8 73.6 99% 29.91 0.0
05 05:55 Calm 0.75 Fog/Mist VV005 73.6 73.4 99% 29.91 0.0
05 05:35 Calm 3.00 Fog/Mist CLR 74.3 74.1 99% 29.91 0.0
05 05:15 Calm 2.00 Fog/Mist CLR 73.9 73.8 99% 29.91 0.0
05 04:55 Calm 4.00 Fog/Mist CLR 74.3 74.3 100% 29.91 0.0
05 04:35 Calm 5.00 Fog/Mist CLR 74.5 74.3 99% 29.91 0.0
05 04:15 Calm 5.00 Fog/Mist SCT015 74.5 74.3 99% 29.91 0.0
05 03:55 Calm 5.00 Fog/Mist CLR 75.2 75 99% 73 29.91 0.0
05 03:35 NE 3 7.00 Fair CLR 75.2 75 99% 73 29.91 0.0
05 03:15 Calm 10.00 Fair CLR 76.1 75.9 99% 75 29.91 0.0
05 02:55 Calm 10.00 Fair CLR 76.1 76.1 100% 75 29.91 0.0
05 02:35 Calm 10.00 Fair CLR 76.3 76.1 99% 76 29.91 0.0
05 02:15 Calm 10.00 Fair CLR 77.4 76.5 97% 79 29.92 0.0
05 01:55 Calm 10.00 Fair CLR 77.4 76.5 97% 79 29.92 0.0
05 01:35 S 3 10.00 Fair CLR 77 76.5 98% 78 29.92 0.0
05 01:15 Calm 10.00 Fair CLR 77 76.3 98% 78 29.93 0.0
05 00:55 Calm 10.00 Fair CLR 77.4 76.1 86.7 77.4 96% 79 29.93 0.0
05 00:35 Calm 10.00 Fair CLR 77.7 76.3 95% 80 29.93 0.0
05 00:15 Calm 10.00 Fair CLR 78.3 76.3 94% 81 29.93 0.0
04 23:55 S 5 10.00 Fair CLR 79 76.5 92% 83 29.93 0.0
04 23:35 S 5 10.00 Fair CLR 78.8 76.1 91% 83 29.93 0.0
04 23:15 S 5 10.00 Fair CLR 78.8 76.3 92% 83 29.94 0.0
04 22:55 S 5 10.00 Fair CLR 78.8 76.1 91% 83 29.94 0.0
04 22:35 S 3 10.00 Fair CLR 79.5 76.3 90% 84 29.94 0.0
04 22:15 S 5 10.00 Fair CLR 80.6 75.9 86% 87 29.94 0.0
04 21:55 SE 5 10.00 Partly Cloudy SCT043 81.3 75.7 83% 88 29.94 0.0
04 21:35 SE 5 10.00 Partly Cloudy SCT043 81.1 75.7 84% 88 29.93 0.0
04 21:15 SE 5 10.00 Fair CLR 80.6 75.6 85% 86 29.92 0.0
04 20:55 SE 3 10.00 Fair CLR 81.5 75.6 82% 88 29.92 0.0
04 20:35 SE 5 10.00 Fair CLR 82.2 76.3 82% 90 29.91 0.0
04 20:15 Calm 10.00 Fair CLR 81.9 77.4 86% 90 29.9 0.0
04 19:55 Calm 10.00 Fair CLR 82.8 77.7 85% 92 29.9 0.0
04 18:55 Calm 10.00 Fair CLR 86.9 76.5 90.3 83.1 71% 98 29.89 0.0 0.01
04 18:35 E 3 10.00 Fair CLR 86 75.6 71% 96 29.88 0.0
04 18:15 S 3 10.00 Fair CLR 85.3 75 71% 94 29.89 0.0
04 17:55 Calm 10.00 Fair CLR 85.1 74.8 71% 93 29.89 0.0
04 17:35 S 5 10.00 Fair CLR 85.8 75.6 72% 95 29.9 0.0
04 17:15 SE 3 10.00 Fair CLR 86 76.1 72% 96 29.9 0.0
04 16:55 SE 6 10.00 Fair CLR 86.4 77 74% 98 29.9 0.0
04 16:35 E 6 10.00 Fair CLR 86.9 77.2 73% 99 29.91 0.0
04 16:15 E 6 10.00 Fair CLR 88.7 77 68% 101 29.91 0.0
04 15:55 E 7 10.00 Fair CLR 88 76.3 68% 99 29.92 0.0 0.01
04 15:35 E 3 10.00 Fair CLR 86.2 77.7 76% 98 29.92 0.0
04 15:10 SE 3 10.00 Light Rain SCT038 SCT055 SCT070 84 77.5 81% 94 29.92 0.0
04 14:55 SE 3 10.00 Light Rain SCT039 BKN055 OVC080 83.3 75.9 79% 92 29.93 0.0 0.01
04 14:35 SE 5 10.00 Light Rain SCT039 SCT048 BKN085 83.8 72.7 69% 90 29.94 0.0
04 14:15 S 10 10.00 Thunderstorm in Vicinity CLR 84.2 73.6 71% 91 29.95 0.0
04 13:55 E 8 10.00 Fair CLR 87.4 76.5 70% 99 29.94 0.0
04 13:35 E 9 10.00 Thunderstorm in Vicinity CLR 88.2 77 70% 100 29.95 0.0
04 13:15 E 7 10.00 Fair CLR 89.1 77 68% 102 29.96 0.0
04 12:55 E 7 10.00 Fair CLR 89.6 76.8 89.6 78.4 66% 102 29.96 0.0
04 12:35 NE 5 10.00 Fair CLR 88 76.8 70% 100 29.97 0.0
04 12:20 SE 5 10.00 Fair CLR 88.7 76.3 67% 100 29.97 0.0
04 11:55 Calm 10.00 Partly Cloudy SCT020 88 77.2 70% 100 29.98 0.0
04 11:35 E 5 10.00 Partly Cloudy SCT020 86.5 78.1 76% 99 29.97 0.0
04 11:15 E 5 10.00 Fair CLR 85.6 78.4 79% 98 29.98 0.0
04 10:50 S 5 10.00 Partly Cloudy SCT018 85.5 78.1 79% 98 29.97 0.0
04 10:35 Calm 10.00 Fair CLR 85.3 78.3 80% 97 29.96 0.0
04 10:10 SE 3 10.00 Fair CLR 84.7 79.3 84% 98 29.96 0.0
04 09:55 Calm 10.00 Fair CLR 83.5 79.9 89% 96 29.96 0.0
04 09:35 SE 3 10.00 Fair CLR 82.4 79.7 92% 93 29.96 0.0
04 09:15 Calm 10.00 Fair CLR 81.5 80.1 95% 91 29.95 0.0
04 08:55 Calm 10.00 Fair CLR 80.6 79.5 97% 89 29.95 0.0
04 08:30 Calm 10.00 Fair CLR 79.5 79 98% 85 29.95 0.0
04 08:15 Calm 10.00 Fair CLR 79.3 78.8 98% 85 29.94 0.0
04 07:55 Calm 10.00 Partly Cloudy SCT025 SCT032 SCT040 78.8 78.6 99% 83 29.94 0.0
04 07:35 Calm 10.00 Mostly Cloudy SCT030 SCT034 BKN046 78.8 78.3 98% 83 29.93 0.0
04 07:15 E 5 10.00 Partly Cloudy SCT026 SCT032 78.4 78.3 99% 82 29.93 0.0
04 06:55 Calm 10.00 Partly Cloudy SCT026 SCT033 78.4 78.3 79.7 78.1 99% 82 29.92 0.0
04 06:35 E 3 7.00 Light Drizzle SCT025 78.3 78.1 99% 81 29.92 0.0
04 06:15 Calm 5.00 Light Rain CLR 78.3 78.1 99% 81 29.92 0.0
04 05:55 Calm 7.00 Light Rain CLR 78.4 78.3 99% 82 29.92 0.0
04 05:35 Calm 7.00 Fair CLR 78.4 78.1 99% 82 29.92 0.0
04 05:15 Calm 10.00 Fair CLR 78.3 78.1 99% 81 29.91 0.0
04 04:55 Calm 7.00 Fair CLR 78.4 78.1 99% 82 29.91 0.0
04 04:35 Calm 7.00 Fair CLR 78.4 78.1 99% 82 29.91 0.0
04 04:15 Calm 7.00 Partly Cloudy SCT120 78.4 78.1 99% 82 29.91 0.0
04 03:55 NE 3 7.00 Fair CLR 78.6 78.3 99% 82 29.9 0.0
04 03:35 Calm 10.00 Partly Cloudy SCT120 78.8 78.4 99% 83 29.91 0.0
04 03:15 Calm 10.00 Fair CLR 78.8 78.3 98% 83 29.91 0.0
04 02:55 Calm 10.00 Fair CLR 79 78.3 98% 84 29.91 0.0
04 02:35 Calm 10.00 Fair CLR 79 78.1 97% 83 29.92 0.0
04 02:15 Calm 10.00 Fair CLR 79.2 78.3 97% 84 29.92 0.0
04 01:55 Calm 10.00 Fair CLR 79.3 78.3 97% 85 29.92 0.0
04 01:35 S 3 10.00 Fair CLR 79.7 78.3 95% 86 29.92 0.0
04 01:15 Calm 10.00 Fair CLR 79.3 78.1 96% 84 29.92 0.0
04 00:55 SE 3 10.00 Fair CLR 78.8 77.9 80.6 78.8 97% 83 29.92 0.0
04 00:35 SE 3 10.00 Fair CLR 78.8 77.9 97% 83 29.92 0.0
04 00:15 SE 3 10.00 Fair CLR 79 77.9 97% 83 29.92 0.0
03 23:55 SE 3 10.00 Fair CLR 79.3 77.9 95% 84 29.92 0.0
03 23:35 S 3 10.00 Fair CLR 79.3 77.9 95% 84 29.92 0.0
03 23:15 SE 3 10.00 Fair CLR 79.2 77.4 94% 84 29.92 0.0
03 22:55 SE 3 10.00 Fair CLR 79.3 77.4 94% 84 29.92 0.0
03 22:35 SE 6 10.00 Fair CLR 79.5 77.2 93% 85 29.92 0.0
03 22:10 SE 6 10.00 Fair CLR 79.2 77.2 94% 84 29.92 0.0
03 21:55 SE 6 10.00 Fair CLR 79.2 77 93% 84 29.91 0.0
03 21:35 SE 6 10.00 Fair CLR 79.2 77 93% 84 29.91 0.0
03 21:15 SE 6 10.00 Fair CLR 79.3 77 93% 84 29.91 0.0
03 20:55 SE 5 10.00 Fair CLR 79 77 94% 83 29.9 0.0
03 20:35 SE 5 10.00 Fair CLR 79.2 77 93% 84 29.9 0.0
03 20:15 SE 5 10.00 Fair CLR 79.3 77 93% 84 29.89 0.0
03 19:55 E 6 10.00 Fair CLR 79.7 77 92% 85 29.89 0.0
03 19:35 E 5 10.00 Fair CLR 79.9 77 91% 85 29.89 0.0
03 19:10 E 8 10.00 Fair CLR 80.1 76.1 88% 85 29.88 0.0
03 18:55 E 9 10.00 Fair CLR 80.6 75.7 94.5 77.9 85% 86 29.88 0.0
03 18:15 E 10 10.00 Fair CLR 80.2 75.2 85% 85 29.89 0.0
03 17:55 E 10 G 17 10.00 Fair CLR 80.6 74.8 83% 86 29.89 0.0
03 17:35 E 6 10.00 Partly Cloudy SCT100 80.8 76.1 86% 87 29.89 0.0
03 17:15 E 8 10.00 Light Rain SCT042 SCT050 SCT100 80.6 76.1 86% 87 29.89 0.0
03 16:55 E 6 10.00 Partly Cloudy SCT120 80.8 75.6 84% 87 29.89 0.0
03 16:35 E 8 10.00 Partly Cloudy SCT120 80.8 75.2 83% 87 29.89 0.0
03 16:15 SE 6 10.00 Partly Cloudy SCT100 SCT120 79.9 74.5 84% 84 29.9 0.0
03 15:55 SE 10 10.00 Partly Cloudy SCT100 SCT120 79.7 74.5 84% 84 29.91 0.0
03 15:35 E 12 G 17 10.00 Thunderstorm in Vicinity SCT065 SCT120 77.9 74.1 88% 80 29.92 0.0
03 14:55 E 12 10.00 Thunderstorm in Vicinity SCT065 SCT075 SCT100 79.9 75 85% 85 29.92 0.0
03 14:10 SE 9 10.00 Mostly Cloudy SCT042 SCT060 BKN095 88.3 72 58% 95 29.9 0.0
03 13:55 SE 7 10.00 Mostly Cloudy SCT042 SCT048 BKN095 93 75.7 57% 105 29.9 0.0
03 13:35 Calm 10.00 Mostly Cloudy SCT040 SCT046 BKN095 93.6 74.3 54% 104 29.91 0.0
03 13:15 SW 5 10.00 Partly Cloudy SCT040 SCT046 SCT095 93.6 74.8 55% 105 29.92 0.0
03 13:00 S 9 10.00 Fair CLR 93.6 74.8 55% 105 29.92 0.0
03 12:30 S 7 10.00 Fair CLR 92.5 75.4 58% 104 29.93 0.0
03 12:10 SW 8 10.00 Partly Cloudy SCT033 91.6 74.8 58% 102 29.95 0.0
03 11:50 SW 7 10.00 Partly Cloudy SCT031 90.5 75.7 62% 102 29.96 0.0
03 11:35 SW 9 10.00 Partly Cloudy SCT028 SCT035 89.4 75.6 64% 100 29.95 0.0
03 11:10 SW 9 10.00 Partly Cloudy SCT024 89.8 76.8 66% 103 29.95 0.0
03 11:00 SW 10 G 17 10.00 Partly Cloudy SCT022 89.6 77.2 67% 103 29.95 0.0
03 10:35 SW 12 10.00 Mostly Cloudy SCT018 BKN024 88.9 77.9 70% 103 29.95 0.0
03 10:10 S 13 G 16 10.00 Mostly Cloudy BKN016 BKN022 BKN028 88 78.8 74% 103 29.95 0.0
03 09:55 SW 12 10.00 Mostly Cloudy BKN016 BKN028 87.1 79.7 79% 102 29.96 0.0
03 09:35 SW 8 10.00 Overcast BKN016 OVC090 84.6 79.5 85% 98 29.96 0.0
03 08:55 S 5 10.00 Overcast BKN090 OVC110 81.5 79.3 93% 91 29.96 0.0
03 08:20 S 5 10.00 Light Rain BKN090 81.5 78.6 91% 90 29.95 0.0
03 07:55 S 6 10.00 Overcast OVC090 80.6 78.4 93% 88 29.94 0.0
03 07:15 S 6 10.00 Overcast SCT019 SCT031 OVC090 80.1 78.1 94% 86 29.94 0.0
03 06:55 S 6 10.00 Mostly Cloudy BKN090 79.9 78.1 81.5 79.9 94% 86 29.93 0.0
03 06:35 S 5 10.00 Mostly Cloudy BKN090 80.2 78.3 94% 87 29.93 0.0
03 06:10 S 5 10.00 Fair CLR 80.1 78.1 94% 86 29.93 0.0
03 05:55 S 5 10.00 Partly Cloudy SCT100 SCT120 80.1 78.1 94% 86 29.93 0.0
03 05:35 S 5 10.00 Overcast BKN100 OVC120 80.1 78.1 94% 86 29.93 0.0
03 05:15 S 5 10.00 Mostly Cloudy BKN100 80.4 77.9 92% 87 29.93 0.0
03 04:55 S 5 10.00 Partly Cloudy SCT100 80.6 78.1 92% 88 29.92 0.0
03 04:35 S 5 10.00 Mostly Cloudy SCT022 SCT031 BKN100 80.1 78.3 94% 86 29.92 0.0
03 04:15 S 5 10.00 Mostly Cloudy SCT022 SCT029 BKN100 80.1 78.4 95% 87 29.93 0.0
03 03:55 S 7 10.00 Partly Cloudy SCT095 80.1 78.3 94% 86 29.92 0.0
03 03:35 S 6 10.00 Mostly Cloudy SCT027 SCT039 BKN095 80.2 78.4 94% 87 29.93 0.0
03 03:15 S 6 10.00 Mostly Cloudy SCT021 SCT028 BKN095 80.6 78.4 93% 88 29.93 0.0
03 02:55 S 7 10.00 Overcast SCT021 SCT027 OVC095 81 78.3 92% 89 29.92 0.0
03 02:35 SE 6 10.00 Overcast SCT025 BKN095 OVC120 81 78.3 92% 89 29.92 0.0
03 02:15 SE 6 10.00 Mostly Cloudy BKN095 81.1 78.3 91% 89 29.93 0.0
03 01:55 SE 5 10.00 Mostly Cloudy BKN095 81 78.3 92% 89 29.93 0.0
03 01:35 SE 6 10.00 Mostly Cloudy SCT095 BKN120 81 78.1 91% 89 29.93 0.0
03 01:15 SE 9 10.00 Light Rain OVC095 81.1 78.3 91% 89 29.93 0.0
03 00:55 SE 5 10.00 Overcast OVC095 81.5 78.1 91.8 81.5 89% 90 29.95 0.0
03 00:35 E 5 10.00 Mostly Cloudy SCT095 BKN110 81.7 78.1 89% 90 29.95 0.0
03 00:15 E 5 10.00 Overcast SCT023 SCT028 OVC120 82 77.9 87% 91 29.96 0.0
02 23:55 E 3 10.00 Overcast OVC023 82.4 77.9 86% 92 29.97 0.0
02 23:40 N 5 10.00 Overcast OVC023 82.4 77.9 86% 92 29.97 0.0
02 23:20 N 5 10.00 Thunderstorm BKN023 OVC085 82 77.9 87% 91 29.98 0.0
02 23:00 Calm 10.00 Partly Cloudy SCT095 82.8 77.2 83% 92 29.96 0.0
02 22:35 S 6 10.00 Fair CLR 82.6 77.4 84% 92 29.94 0.0
02 22:15 S 6 10.00 Fair CLR 82.8 77.2 83% 92 29.94 0.0
02 22:00 S 8 10.00 Fair CLR 82.9 77 82% 92 29.93 0.0
02 21:35 S 12 10.00 Thunderstorm in Vicinity SCT120 83.7 76.1 78% 92 29.91 0.0
02 21:15 S 13 10.00 Thunderstorm in Vicinity SCT110 84.6 76.1 76% 94 29.9 0.0
02 20:55 S 12 G 21 10.00 Mostly Cloudy BKN110 85.3 75.2 72% 94 29.89 0.0
02 20:30 S 16 10.00 Partly Cloudy SCT110 86.4 74.1 67% 95 29.89 0.0
02 20:15 S 12 10.00 Fair CLR 87.3 72 61% 94 29.89 0.0
02 19:55 S 12 10.00 Fair CLR 87.8 69.8 55% 93 29.88 0.0
02 19:35 S 15 G 20 10.00 Fair CLR 89.6 69.1 51% 94 29.86 0.0
02 19:20 S 16 G 21 10.00 Fair CLR 90.5 70.7 52% 97 29.86 0.0
02 18:55 S 15 G 20 10.00 Fair CLR 91.9 73.4 99.3 91.9 55% 101 29.86 0.0
02 18:20 S 16 G 22 10.00 Partly Cloudy SCT085 93.4 74.5 54% 104 29.86 0.0
02 17:55 S 15 G 20 10.00 Partly Cloudy SCT085 95.2 74.7 52% 107 29.85 0.0
02 17:35 S 9 10.00 Fair CLR 97.3 70 41% 104 29.85 0.0
02 17:20 S 9 10.00 Fair CLR 98.4 70.2 40% 106 29.85 0.0
02 16:55 S 6 10.00 Partly Cloudy SCT100 97.3 69.4 40% 104 29.86 0.0
02 16:35 SE 7 10.00 Partly Cloudy SCT070 SCT100 97.3 70 41% 104 29.86 0.0
02 16:15 S 6 10.00 Mostly Cloudy SCT050 SCT070 BKN110 99 70.2 39% 106 29.86 0.0
02 15:55 S 8 10.00 Partly Cloudy SCT110 99.1 70.9 40% 107 29.87 0.0
02 15:35 S 7 10.00 Partly Cloudy SCT110 98.8 71.1 41% 107 29.88 0.0
02 15:10 S 9 10.00 Partly Cloudy SCT110 98.6 71.1 41% 107 29.89 0.0
02 14:55 S 9 10.00 Fair CLR 98.4 70.5 41% 106 29.9 0.0
02 14:35 SW 10 10.00 Fair CLR 97.5 71.1 42% 106 29.91 0.0
02 14:15 S 12 10.00 Fair CLR 97.3 70.9 42% 105 29.92 0.0
02 13:55 S 8 G 16 10.00 Fair CLR 96.6 70.7 43% 104 29.93 0.0
02 13:35 S 8 10.00 Fair CLR 95.4 72.1 47% 104 29.94 0.0
Date Time (cdt) Wind (mph) Vis. (mi.) Weather Sky Cond. Air Dwpt Max. Min. Relative Humidity Wind Chill (°F) Heat Index (°F) altimeter (in) sea level (mb) 1 hr 3 hr 6 hr
6 hour
Temperature (ºF) Pressure Precipitation (in)